createdAt,value
2018-02-06T00:11:05.859Z,4.0
2018-02-06T00:27:52.841Z,3.9
2018-02-06T00:44:39.503Z,3.9
2018-02-06T01:01:26.380Z,3.9
2018-02-06T01:18:12.510Z,3.9
2018-02-06T01:34:59.033Z,3.9
2018-02-06T01:51:45.548Z,3.9
2018-02-06T02:08:31.513Z,3.9
2018-02-06T02:25:18.003Z,3.9
2018-02-06T04:56:12.509Z,3.8
2018-02-06T05:12:58.531Z,3.8
2018-02-06T05:29:44.245Z,3.8
2018-02-06T05:46:29.658Z,3.8
2018-02-06T06:03:14.728Z,3.8
2018-02-06T06:20:00.600Z,3.8
2018-02-06T06:36:46.354Z,3.7
2018-02-06T06:53:31.339Z,3.7
2018-02-06T07:10:16.833Z,3.7
2018-02-06T07:27:03.428Z,3.7
2018-02-06T07:43:48.288Z,3.8
2018-02-06T08:00:34.373Z,3.8
2018-02-06T08:17:19.726Z,3.9
2018-02-06T08:34:05.698Z,3.9
2018-02-06T08:50:52.052Z,4.0
2018-02-06T09:07:36.928Z,4.1
2018-02-06T09:24:22.960Z,4.2
2018-02-06T09:41:10.570Z,4.3
2018-02-06T09:57:55.695Z,4.4
2018-02-06T10:14:42.806Z,4.5
2018-02-06T10:31:29.602Z,4.5
2018-02-06T10:48:16.148Z,4.5
2018-02-06T11:05:03.111Z,4.5
2018-02-06T11:21:49.289Z,4.5
2018-02-06T11:38:36.383Z,4.5
2018-02-06T11:55:23.066Z,4.5
2018-02-06T12:12:09.861Z,4.5
2018-02-06T12:28:57.068Z,4.6
2018-02-06T12:44:03.567Z,4.5
2018-02-06T13:00:51.156Z,4.5
2018-02-06T13:17:38.392Z,4.5
2018-02-06T13:34:25.870Z,4.5
2018-02-06T13:51:13.066Z,4.5
2018-02-06T14:08:00.095Z,4.5
2018-02-06T14:24:47.286Z,4.5
2018-02-06T14:41:34.394Z,4.5
2018-02-06T14:58:21.337Z,4.5
2018-02-06T15:15:08.282Z,4.4
2018-02-06T15:31:55.298Z,4.4
2018-02-06T15:48:42.318Z,4.4
2018-02-06T16:05:29.226Z,4.4
2018-02-06T16:22:16.397Z,4.4
2018-02-06T16:39:03.433Z,4.3
2018-02-06T16:55:50.518Z,4.3
2018-02-06T17:12:37.704Z,4.3
2018-02-06T17:29:24.732Z,4.3
2018-02-06T17:46:12.701Z,4.3
2018-02-06T18:02:58.668Z,4.2
2018-02-06T18:19:45.741Z,4.2
2018-02-06T18:36:31.798Z,4.2
2018-02-06T18:53:18.426Z,4.2
2018-02-06T19:10:05.032Z,4.2
2018-02-06T19:26:51.529Z,4.2
2018-02-06T19:43:37.921Z,4.2
2018-02-06T20:00:24.366Z,4.2
2018-02-06T20:17:10.712Z,4.2
2018-02-06T20:33:57.600Z,4.2
2018-02-06T20:50:43.274Z,4.1
2018-02-06T21:07:29.485Z,4.1
2018-02-06T21:24:15.742Z,4.1
2018-02-06T21:41:02.084Z,4.1
2018-02-06T21:57:48.433Z,4.1
2018-02-06T22:14:35.442Z,4.1
2018-02-06T22:31:21.586Z,4.1
2018-02-06T22:48:07.968Z,4.1
2018-02-06T23:04:54.203Z,4.1
2018-02-06T23:21:41.203Z,4.1
2018-02-06T23:38:27.361Z,4.0
2018-02-06T23:55:13.557Z,4.0
